createdAt,value
2022-10-17T00:00:10.820Z,11.62
2022-10-17T00:03:00.512Z,11.69
2022-10-17T00:05:28.541Z,11.74
2022-10-17T00:07:58.718Z,11.73
2022-10-17T00:10:27.534Z,11.66
2022-10-17T00:12:56.947Z,11.74
2022-10-17T00:15:24.834Z,11.68
2022-10-17T00:17:55.132Z,11.61
2022-10-17T00:20:22.688Z,11.53
2022-10-17T00:22:50.913Z,11.49
2022-10-17T00:25:20.707Z,11.51
2022-10-17T00:27:49.376Z,11.49
2022-10-17T00:30:17.731Z,11.53
2022-10-17T00:32:50.466Z,11.52
2022-10-17T00:35:18.040Z,11.50
2022-10-17T00:37:48.427Z,11.43
2022-10-17T00:40:18.368Z,11.49
2022-10-17T00:42:53.127Z,11.45
2022-10-17T00:45:27.415Z,11.46
2022-10-17T00:48:16.591Z,11.53
2022-10-17T00:50:50.741Z,11.46
2022-10-17T00:53:20.765Z,11.59
2022-10-17T00:55:53.751Z,11.58
2022-10-17T00:58:23.964Z,11.56
2022-10-17T01:00:55.522Z,11.49
2022-10-17T01:03:23.749Z,11.53
2022-10-17T01:05:54.526Z,11.58
2022-10-17T01:08:27.558Z,11.63
2022-10-17T01:11:17.543Z,11.53
2022-10-17T01:14:24.677Z,11.58
2022-10-17T01:17:20.242Z,11.53
2022-10-17T01:20:05.485Z,11.55
2022-10-17T01:22:38.962Z,11.54
2022-10-17T01:25:34.822Z,11.54
2022-10-17T01:28:48.340Z,11.47
2022-10-17T01:31:37.684Z,11.45
2022-10-17T01:34:23.753Z,11.45
2022-10-17T01:40:17.764Z,11.49
2022-10-17T01:43:09.541Z,11.42
2022-10-17T01:45:50.382Z,11.55
2022-10-17T01:48:34.023Z,11.53
2022-10-17T01:51:37.676Z,11.57
2022-10-17T01:54:32.658Z,11.54
2022-10-17T01:57:05.872Z,11.53
2022-10-17T01:59:45.928Z,11.48
2022-10-17T02:05:09.384Z,11.53
2022-10-17T02:07:43.097Z,11.51
2022-10-17T02:10:26.367Z,11.57
2022-10-17T02:13:10.646Z,11.59
2022-10-17T02:15:51.698Z,11.53
2022-10-17T02:18:24.230Z,11.47
2022-10-17T02:21:18.200Z,11.51
2022-10-17T02:24:01.172Z,11.49
2022-10-17T02:27:12.129Z,11.52
2022-10-17T02:30:07.521Z,11.39
2022-10-17T02:33:15.729Z,11.49
2022-10-17T02:35:54.789Z,11.46
2022-10-17T02:38:29.389Z,11.37
2022-10-17T02:40:57.849Z,11.44
2022-10-17T02:43:26.039Z,11.37
2022-10-17T02:45:55.072Z,11.26
2022-10-17T02:48:43.915Z,11.37
2022-10-17T02:51:55.784Z,11.27
2022-10-17T02:54:37.300Z,11.31
2022-10-17T02:57:12.850Z,11.10
2022-10-17T02:59:45.199Z,11.19
2022-10-17T03:02:13.287Z,11.24
2022-10-17T03:04:45.567Z,11.08
2022-10-17T03:07:15.947Z,11.14
2022-10-17T03:09:45.590Z,11.10
2022-10-17T03:12:14.590Z,11.07
2022-10-17T03:14:42.170Z,11.09
2022-10-17T03:17:09.526Z,11.04
2022-10-17T03:19:56.192Z,11.06
2022-10-17T03:22:25.432Z,11.03
2022-10-17T03:24:54.283Z,11.07
2022-10-17T03:27:23.797Z,11.04
2022-10-17T03:29:54.576Z,11.04
2022-10-17T03:32:28.575Z,11.03
2022-10-17T03:34:58.850Z,11.00
2022-10-17T03:37:28.124Z,11.04
2022-10-17T03:39:58.440Z,11.04
2022-10-17T03:42:27.736Z,11.03
2022-10-17T03:44:57.654Z,11.04
2022-10-17T03:47:28.855Z,10.99
2022-10-17T03:50:00.995Z,10.96
2022-10-17T03:52:30.846Z,11.00
2022-10-17T03:55:02.123Z,10.99
2022-10-17T03:57:31.420Z,10.93
2022-10-17T04:00:00.784Z,10.95
2022-10-17T04:02:30.740Z,10.97
2022-10-17T04:05:08.831Z,10.96
2022-10-17T04:07:37.730Z,10.86
2022-10-17T04:10:11.753Z,10.83
2022-10-17T04:12:41.535Z,10.83
2022-10-17T04:15:16.800Z,10.83
2022-10-17T04:17:48.640Z,10.73
2022-10-17T04:20:26.626Z,10.62
2022-10-17T04:22:55.890Z,10.65
2022-10-17T04:25:29.667Z,10.65
2022-10-17T04:28:01.570Z,10.60
2022-10-17T04:30:31.935Z,10.60
2022-10-17T04:33:00.748Z,10.64
2022-10-17T04:35:31.195Z,10.58
2022-10-17T04:38:04.654Z,10.48
2022-10-17T04:40:34.872Z,10.51
2022-10-17T04:43:08.153Z,10.58
2022-10-17T04:45:38.541Z,10.47
2022-10-17T04:48:07.140Z,10.43
2022-10-17T04:50:36.559Z,10.43
2022-10-17T04:53:20.296Z,10.53
2022-10-17T04:55:54.818Z,10.62
2022-10-17T04:58:22.939Z,10.58
2022-10-17T05:00:53.024Z,10.42
2022-10-17T05:03:23.752Z,10.44
2022-10-17T05:05:53.644Z,10.47
2022-10-17T05:08:21.883Z,10.45
2022-10-17T05:10:52.126Z,10.40
2022-10-17T05:13:25.700Z,10.39
2022-10-17T05:16:04.543Z,10.41
2022-10-17T05:18:53.041Z,10.40
2022-10-17T05:24:20.340Z,10.52
2022-10-17T05:26:58.008Z,10.57
2022-10-17T05:29:26.841Z,10.61
2022-10-17T05:32:07.232Z,10.60
2022-10-17T05:34:40.142Z,10.68
2022-10-17T05:37:08.998Z,10.69
2022-10-17T05:39:36.928Z,11.91
2022-10-17T05:42:07.656Z,12.94
2022-10-17T05:44:36.757Z,13.62
2022-10-17T05:47:18.844Z,14.68
2022-10-17T05:49:52.458Z,15.08
2022-10-17T05:52:32.137Z,15.90
2022-10-17T05:55:12.088Z,16.43
2022-10-17T05:57:44.309Z,16.49
2022-10-17T06:00:20.203Z,16.35
2022-10-17T06:03:13.258Z,17.16
2022-10-17T06:06:15.505Z,17.63
2022-10-17T06:08:48.559Z,17.43
2022-10-17T06:11:27.059Z,17.39
2022-10-17T06:14:22.660Z,18.63
2022-10-17T06:16:57.744Z,19.42
2022-10-17T06:19:26.914Z,19.73
2022-10-17T06:21:58.168Z,19.71
2022-10-17T06:24:34.842Z,19.80
2022-10-17T06:27:11.889Z,20.52
2022-10-17T06:29:43.488Z,20.68
2022-10-17T06:32:39.315Z,20.58
2022-10-17T06:35:11.207Z,21.29
2022-10-17T06:37:49.954Z,21.39
2022-10-17T06:40:22.395Z,22.29
2022-10-17T06:42:56.456Z,22.00
2022-10-17T06:45:50.033Z,22.48
2022-10-17T06:49:04.326Z,23.00
2022-10-17T06:52:01.513Z,23.60
2022-10-17T06:54:45.596Z,23.77
2022-10-17T06:57:52.273Z,21.81
2022-10-17T07:00:46.738Z,21.55
2022-10-17T07:03:21.156Z,22.07
2022-10-17T07:05:54.611Z,21.59
2022-10-17T07:08:24.936Z,21.69
2022-10-17T07:10:56.097Z,21.18
2022-10-17T07:13:28.786Z,20.45
2022-10-17T07:16:02.503Z,20.61
2022-10-17T07:18:39.059Z,21.27
2022-10-17T07:21:12.562Z,19.82
2022-10-17T07:23:45.571Z,19.85
2022-10-17T07:26:17.403Z,19.61
2022-10-17T07:28:48.793Z,20.10
2022-10-17T07:31:36.457Z,20.31
2022-10-17T07:34:05.754Z,20.12
2022-10-17T07:37:01.794Z,20.30
2022-10-17T07:39:30.265Z,20.43
2022-10-17T07:42:00.038Z,19.80
2022-10-17T07:44:32.251Z,20.14
2022-10-17T07:47:03.852Z,19.72
2022-10-17T07:49:48.100Z,19.61
2022-10-17T07:52:17.220Z,18.67
2022-10-17T07:54:46.798Z,19.21
2022-10-17T07:57:15.747Z,19.52
2022-10-17T07:59:46.219Z,19.29
2022-10-17T08:02:28.160Z,19.34
2022-10-17T08:05:04.901Z,20.21
2022-10-17T08:07:35.618Z,19.30
2022-10-17T08:10:04.761Z,19.45
2022-10-17T08:12:34.537Z,19.04
2022-10-17T08:15:26.809Z,19.60
2022-10-17T08:18:06.096Z,19.63
2022-10-17T08:20:36.283Z,20.49
2022-10-17T08:23:03.916Z,19.60
2022-10-17T08:25:38.628Z,20.53
2022-10-17T08:28:09.328Z,20.15
2022-10-17T08:30:38.943Z,20.81
2022-10-17T08:33:34.057Z,21.76
2022-10-17T08:36:05.920Z,21.47
2022-10-17T08:38:36.360Z,20.39
2022-10-17T08:41:31.794Z,19.84
2022-10-17T08:44:47.170Z,20.11
2022-10-17T08:47:28.351Z,20.12
2022-10-17T08:50:03.596Z,20.41
2022-10-17T08:52:48.864Z,20.77
2022-10-17T08:55:45.547Z,21.18
2022-10-17T08:58:17.326Z,21.42
2022-10-17T09:01:02.424Z,21.23
2022-10-17T09:04:00.788Z,21.05
2022-10-17T09:06:40.534Z,20.91
2022-10-17T09:09:28.425Z,20.73
2022-10-17T09:12:14.907Z,20.91
2022-10-17T09:15:00.559Z,20.81
2022-10-17T09:17:55.886Z,19.96
2022-10-17T09:21:02.779Z,20.48
2022-10-17T09:24:09.674Z,21.06
2022-10-17T09:26:47.078Z,21.66
2022-10-17T09:29:43.965Z,21.09
2022-10-17T09:32:23.678Z,21.39
2022-10-17T09:34:54.303Z,20.92
2022-10-17T09:37:31.786Z,21.27
2022-10-17T09:40:01.283Z,21.63
2022-10-17T09:42:38.044Z,21.57
2022-10-17T09:45:27.722Z,22.11
2022-10-17T09:48:10.718Z,21.82
2022-10-17T09:50:40.316Z,21.17
2022-10-17T09:53:41.570Z,20.89
2022-10-17T09:56:21.211Z,21.07
2022-10-17T09:58:58.632Z,21.11
2022-10-17T10:01:32.161Z,21.34
2022-10-17T10:04:15.545Z,21.38
2022-10-17T10:07:06.396Z,21.69
2022-10-17T10:09:39.479Z,22.67
2022-10-17T10:12:23.441Z,22.98
2022-10-17T10:14:54.739Z,22.60
2022-10-17T10:17:44.142Z,22.38
2022-10-17T10:20:46.948Z,21.99
2022-10-17T10:23:21.232Z,22.20
2022-10-17T10:25:56.421Z,22.97
2022-10-17T10:28:29.039Z,23.31
2022-10-17T10:31:00.537Z,22.83
2022-10-17T10:33:31.859Z,22.32
2022-10-17T10:36:07.960Z,22.55
2022-10-17T10:38:39.322Z,22.39
2022-10-17T10:41:12.730Z,21.48
2022-10-17T10:43:59.066Z,21.51
2022-10-17T10:46:28.656Z,21.40
2022-10-17T10:48:59.798Z,21.19
2022-10-17T10:51:53.702Z,21.24
2022-10-17T10:54:47.994Z,21.79
2022-10-17T10:57:21.649Z,22.25
2022-10-17T11:00:21.154Z,22.81
2022-10-17T11:03:14.038Z,22.61
2022-10-17T11:05:52.335Z,22.40
2022-10-17T11:08:36.851Z,21.77
2022-10-17T11:11:18.155Z,22.10
2022-10-17T11:13:56.243Z,23.08
2022-10-17T11:16:40.365Z,23.28
2022-10-17T11:19:44.193Z,22.31
2022-10-17T11:22:26.645Z,22.69
2022-10-17T11:25:08.128Z,22.54
2022-10-17T11:27:35.702Z,23.45
2022-10-17T11:30:06.524Z,23.28
2022-10-17T11:32:59.723Z,22.53
2022-10-17T11:35:34.392Z,22.44
2022-10-17T11:38:04.708Z,22.85
2022-10-17T11:40:38.629Z,22.52
2022-10-17T11:43:15.077Z,22.88
2022-10-17T11:45:50.700Z,22.77
2022-10-17T11:48:43.696Z,22.93
2022-10-17T11:54:15.048Z,23.24
2022-10-17T11:57:12.711Z,22.65
2022-10-17T12:00:06.256Z,22.85
2022-10-17T12:02:52.236Z,22.91
2022-10-17T12:05:47.503Z,23.43
2022-10-17T12:08:46.001Z,23.17
2022-10-17T12:11:39.763Z,22.98
2022-10-17T12:14:46.608Z,23.11
2022-10-17T12:17:41.939Z,23.38
2022-10-17T12:20:28.592Z,23.30
2022-10-17T12:23:11.437Z,24.04
2022-10-17T12:26:05.439Z,23.59
2022-10-17T12:28:48.027Z,22.73
2022-10-17T12:31:33.630Z,22.59
2022-10-17T12:34:05.224Z,22.37
2022-10-17T12:36:39.858Z,23.03
2022-10-17T12:39:13.730Z,23.00
2022-10-17T12:41:46.978Z,23.23
2022-10-17T12:44:18.737Z,23.79
2022-10-17T12:47:19.679Z,23.59
2022-10-17T12:49:56.469Z,23.82
2022-10-17T12:52:39.466Z,23.99
2022-10-17T12:55:34.282Z,24.17
2022-10-17T12:58:15.004Z,23.82
2022-10-17T13:01:23.064Z,23.42
2022-10-17T13:04:09.552Z,22.99
2022-10-17T13:06:44.187Z,23.14
2022-10-17T13:09:34.537Z,22.96
2022-10-17T13:12:12.009Z,22.51
2022-10-17T13:14:43.197Z,22.59
2022-10-17T13:17:30.826Z,22.92
2022-10-17T13:19:59.892Z,23.29
2022-10-17T13:22:31.027Z,23.48
2022-10-17T13:25:14.011Z,23.04
2022-10-17T13:27:42.150Z,22.68
2022-10-17T13:30:34.255Z,22.69
2022-10-17T13:33:03.328Z,22.37
2022-10-17T13:38:34.138Z,22.34
2022-10-17T13:41:33.755Z,22.10
2022-10-17T13:43:54.516Z,22.44
2022-10-17T13:46:39.893Z,22.43
2022-10-17T13:49:16.367Z,22.68
2022-10-17T13:51:49.637Z,22.51
2022-10-17T13:54:33.837Z,22.74
2022-10-17T13:57:04.727Z,22.97
2022-10-17T13:59:41.175Z,22.82
2022-10-17T14:02:23.843Z,23.05
2022-10-17T14:05:17.169Z,23.30
2022-10-17T14:08:12.792Z,23.40
2022-10-17T14:11:07.862Z,23.59
2022-10-17T14:13:36.060Z,23.22
2022-10-17T14:16:05.787Z,23.12
2022-10-17T14:18:39.272Z,23.02
2022-10-17T14:21:42.992Z,22.90
2022-10-17T14:24:16.877Z,22.80
2022-10-17T14:26:54.246Z,22.59
2022-10-17T14:29:35.111Z,22.60
2022-10-17T14:32:08.792Z,22.34
2022-10-17T14:34:44.088Z,22.41
2022-10-17T14:37:21.171Z,22.21
2022-10-17T14:39:55.700Z,22.17
2022-10-17T14:42:23.980Z,22.13
2022-10-17T14:44:54.814Z,22.07
2022-10-17T14:47:43.106Z,21.99
2022-10-17T14:50:11.392Z,21.92
2022-10-17T14:52:40.001Z,21.98
2022-10-17T14:55:29.290Z,22.11
2022-10-17T14:57:56.900Z,22.21
2022-10-17T15:00:25.831Z,22.12
2022-10-17T15:02:56.613Z,22.06
2022-10-17T15:07:57.837Z,21.59
2022-10-17T15:10:51.301Z,21.31
2022-10-17T15:13:29.036Z,21.11
2022-10-17T15:15:57.877Z,20.91
2022-10-17T15:18:26.774Z,20.79
2022-10-17T15:21:04.964Z,20.69
2022-10-17T15:23:36.394Z,20.62
2022-10-17T15:26:33.704Z,20.38
2022-10-17T15:29:02.840Z,20.12
2022-10-17T15:31:59.097Z,19.82
2022-10-17T15:34:31.916Z,19.63
2022-10-17T15:37:01.475Z,19.43
2022-10-17T15:39:33.477Z,19.13
2022-10-17T15:42:03.483Z,18.89
2022-10-17T15:44:34.011Z,18.73
2022-10-17T15:47:03.883Z,18.60
2022-10-17T15:49:31.810Z,18.63
2022-10-17T15:52:02.655Z,18.44
2022-10-17T15:54:35.363Z,18.34
2022-10-17T15:57:27.380Z,18.16
2022-10-17T16:00:01.581Z,17.96
2022-10-17T16:02:31.283Z,17.91
2022-10-17T16:05:02.813Z,17.80
2022-10-17T16:07:32.717Z,17.70
2022-10-17T16:10:00.179Z,17.69
2022-10-17T16:12:41.640Z,17.67
2022-10-17T16:15:23.368Z,17.53
2022-10-17T16:17:55.527Z,17.47
2022-10-17T16:20:25.238Z,17.42
2022-10-17T16:22:59.934Z,17.30
2022-10-17T16:25:29.880Z,17.23
2022-10-17T16:27:59.048Z,17.15
2022-10-17T16:30:31.751Z,17.09
2022-10-17T16:33:01.976Z,17.11
2022-10-17T16:35:36.581Z,17.03
2022-10-17T16:38:08.707Z,16.97
2022-10-17T16:40:39.396Z,16.97
2022-10-17T16:43:11.510Z,16.90
2022-10-17T16:45:40.026Z,16.80
2022-10-17T16:48:09.969Z,16.69
2022-10-17T16:50:41.309Z,16.65
2022-10-17T16:53:10.675Z,16.57
2022-10-17T16:55:58.635Z,16.54
2022-10-17T16:58:27.586Z,16.59
2022-10-17T17:00:57.596Z,16.50
2022-10-17T17:03:28.064Z,16.45
2022-10-17T17:05:56.664Z,16.37
2022-10-17T17:08:26.511Z,16.31
2022-10-17T17:10:56.719Z,16.21
2022-10-17T17:13:28.405Z,16.18
2022-10-17T17:16:14.573Z,16.04
2022-10-17T17:18:54.495Z,15.93
2022-10-17T17:21:27.943Z,15.81
2022-10-17T17:23:59.400Z,15.87
2022-10-17T17:26:41.075Z,15.81
2022-10-17T17:29:10.589Z,15.68
2022-10-17T17:31:42.136Z,15.69
2022-10-17T17:34:11.096Z,15.58
2022-10-17T17:36:43.614Z,15.54
2022-10-17T17:39:14.760Z,15.48
2022-10-17T17:41:45.693Z,15.42
2022-10-17T17:44:16.980Z,15.25
2022-10-17T17:46:50.752Z,15.20
2022-10-17T17:49:20.124Z,15.18
2022-10-17T17:51:47.615Z,15.08
2022-10-17T17:54:19.061Z,14.95
2022-10-17T17:56:50.991Z,14.92
2022-10-17T17:59:26.363Z,14.95
2022-10-17T18:01:55.624Z,14.95
2022-10-17T18:04:29.999Z,14.97
2022-10-17T18:06:59.063Z,14.95
2022-10-17T18:09:29.125Z,14.86
2022-10-17T18:11:57.844Z,14.91
2022-10-17T18:14:25.919Z,14.85
2022-10-17T18:16:55.861Z,14.90
2022-10-17T18:19:24.934Z,14.81
2022-10-17T18:21:53.874Z,14.77
2022-10-17T18:24:22.918Z,14.67
2022-10-17T18:26:56.447Z,14.52
2022-10-17T18:29:24.267Z,14.47
2022-10-17T18:31:51.674Z,14.39
2022-10-17T18:34:20.796Z,14.36
2022-10-17T18:36:57.444Z,14.28
2022-10-17T18:39:26.672Z,14.25
2022-10-17T18:41:55.795Z,14.19
2022-10-17T18:44:27.242Z,14.32
2022-10-17T18:46:55.202Z,14.13
2022-10-17T18:49:29.341Z,14.20
2022-10-17T18:52:00.977Z,14.07
2022-10-17T18:54:32.245Z,14.11
2022-10-17T18:57:01.578Z,14.18
2022-10-17T18:59:30.797Z,14.09
2022-10-17T19:02:00.198Z,13.96
2022-10-17T19:04:28.867Z,13.81
2022-10-17T19:06:59.393Z,13.88
2022-10-17T19:09:27.190Z,13.82
2022-10-17T19:11:54.793Z,13.84
2022-10-17T19:14:23.189Z,13.75
2022-10-17T19:16:53.465Z,13.74
2022-10-17T19:19:25.963Z,13.71
2022-10-17T19:21:57.735Z,13.68
2022-10-17T19:24:57.108Z,13.57
2022-10-17T19:27:26.493Z,13.46
2022-10-17T19:29:56.646Z,13.43
2022-10-17T19:32:25.678Z,13.40
2022-10-17T19:34:56.559Z,13.18
2022-10-17T19:37:24.746Z,13.17
2022-10-17T19:39:53.748Z,13.11
2022-10-17T19:42:21.863Z,13.08
2022-10-17T19:44:53.464Z,13.04
2022-10-17T19:47:21.917Z,12.94
2022-10-17T19:49:54.645Z,12.97
2022-10-17T19:52:22.114Z,12.86
2022-10-17T19:54:55.463Z,12.78
2022-10-17T19:57:26.746Z,12.77
2022-10-17T20:00:21.679Z,12.70
2022-10-17T20:02:50.569Z,12.59
2022-10-17T20:05:44.023Z,12.55
2022-10-17T20:08:17.074Z,12.43
2022-10-17T20:11:20.551Z,12.45
2022-10-17T20:13:55.763Z,12.34
2022-10-17T20:16:26.084Z,12.25
2022-10-17T20:18:59.164Z,12.19
2022-10-17T20:21:33.115Z,12.08
2022-10-17T20:24:04.646Z,12.06
2022-10-17T20:26:38.267Z,11.92
2022-10-17T20:29:17.528Z,11.94
2022-10-17T20:31:46.426Z,11.98
2022-10-17T20:34:17.543Z,11.87
2022-10-17T20:36:48.889Z,11.76
2022-10-17T20:39:20.061Z,11.76
2022-10-17T20:41:49.083Z,11.75
2022-10-17T20:44:17.148Z,11.71
2022-10-17T20:47:00.656Z,11.71
2022-10-17T20:49:34.634Z,11.75
2022-10-17T20:52:03.553Z,11.80
2022-10-17T20:54:30.791Z,11.85
2022-10-17T20:57:02.573Z,11.76
2022-10-17T20:59:35.484Z,11.75
2022-10-17T21:02:05.866Z,11.71
2022-10-17T21:04:45.836Z,11.60
2022-10-17T21:07:14.405Z,11.73
2022-10-17T21:09:43.374Z,11.79
2022-10-17T21:12:18.114Z,11.73
2022-10-17T21:14:53.589Z,11.89
2022-10-17T21:17:24.355Z,11.90
2022-10-17T21:19:51.830Z,11.89
2022-10-17T21:22:19.503Z,12.06
2022-10-17T21:24:47.056Z,12.05
2022-10-17T21:27:18.592Z,11.98
2022-10-17T21:29:48.064Z,12.00
2022-10-17T21:32:31.982Z,12.02
2022-10-17T21:35:07.932Z,12.06
2022-10-17T21:37:37.356Z,12.02
2022-10-17T21:40:09.193Z,12.06
2022-10-17T21:42:41.164Z,11.97
2022-10-17T21:45:15.934Z,11.94
2022-10-17T21:48:12.937Z,11.87
2022-10-17T21:50:42.225Z,11.79
2022-10-17T21:53:13.917Z,11.84
2022-10-17T21:55:41.825Z,11.85
2022-10-17T21:58:09.400Z,11.71
2022-10-17T22:00:36.978Z,11.64
2022-10-17T22:03:07.245Z,11.62
2022-10-17T22:05:40.505Z,11.62
2022-10-17T22:08:09.906Z,11.70
2022-10-17T22:10:40.619Z,11.67
2022-10-17T22:13:27.312Z,11.59
2022-10-17T22:16:03.795Z,11.52
2022-10-17T22:18:32.592Z,11.37
2022-10-17T22:21:08.864Z,11.21
2022-10-17T22:23:38.632Z,11.22
2022-10-17T22:26:07.294Z,11.23
2022-10-17T22:28:40.178Z,11.18
2022-10-17T22:31:09.836Z,11.16
2022-10-17T22:33:41.573Z,11.18
2022-10-17T22:36:27.060Z,11.15
2022-10-17T22:38:54.720Z,11.04
2022-10-17T22:41:23.151Z,11.04
2022-10-17T22:43:53.070Z,10.93
2022-10-17T22:46:21.443Z,10.86
2022-10-17T22:48:51.270Z,10.91
2022-10-17T22:53:53.774Z,10.78
2022-10-17T22:56:26.013Z,10.78
2022-10-17T22:58:56.486Z,11.01
2022-10-17T23:01:25.676Z,10.92
2022-10-17T23:03:55.663Z,10.85
2022-10-17T23:06:24.481Z,10.68
2022-10-17T23:08:53.002Z,10.62
2022-10-17T23:11:23.017Z,10.65
2022-10-17T23:13:53.343Z,10.52
2022-10-17T23:16:23.493Z,10.51
2022-10-17T23:18:51.872Z,10.65
2022-10-17T23:21:19.749Z,10.51
2022-10-17T23:23:47.911Z,10.41
2022-10-17T23:26:15.748Z,10.38
2022-10-17T23:28:44.919Z,10.35
2022-10-17T23:31:21.764Z,10.39
2022-10-17T23:33:51.883Z,10.39
2022-10-17T23:36:20.991Z,10.24
2022-10-17T23:38:52.661Z,10.48
2022-10-17T23:41:22.643Z,10.29
2022-10-17T23:43:51.334Z,10.25
2022-10-17T23:46:19.540Z,10.33
2022-10-17T23:48:47.823Z,10.38
2022-10-17T23:51:16.274Z,10.44
2022-10-17T23:53:45.000Z,10.25
2022-10-17T23:56:12.847Z,10.48
2022-10-17T23:58:40.829Z,10.48
